Time;durP1;ratioP1;P1;durP2;ratioP2;P2;SDS_P1;SDS_P2;PMS_P1;PMS_P2;Temp;Humidity;BMP_temperature;BMP_pressure;BME280_temperature;BME280_humidity;BME280_pressure;Samples;Min_cycle;Max_cycle;Signal;HPM_P1;HPM_P2
2022/07/15 00:01:54;;;;;;;;;;;18.10;99.90;;;;;;5076041;28;20277;-80
2022/07/15 00:04:19;;;;;;;;;;;18.00;99.90;;;;;;5076208;28;19963;-79
2022/07/15 00:06:45;;;;;;;;;;;17.90;99.90;;;;;;5076258;28;19948;-81
2022/07/15 00:09:10;;;;;;;;;;;18.10;99.90;;;;;;5076141;28;19909;-81
2022/07/15 00:11:36;;;;;;;;;;;18.20;99.90;;;;;;5075671;28;19908;-81
2022/07/15 00:14:02;;;;;;;;;;;18.20;99.90;;;;;;5066941;28;19923;-80
2022/07/15 00:16:27;;;;;;;;;;;18.30;99.90;;;;;;5075913;28;20003;-81
2022/07/15 00:18:53;;;;;;;;;;;18.20;99.90;;;;;;5076046;28;19961;-81
2022/07/15 00:21:19;;;;;;;;;;;18.30;99.90;;;;;;5075892;28;19909;-81
2022/07/15 00:23:44;;;;;;;;;;;18.10;99.90;;;;;;5076113;28;20469;-81
2022/07/15 00:26:10;;;;;;;;;;;18.20;99.90;;;;;;5075680;28;19908;-81
2022/07/15 00:28:36;;;;;;;;;;;18.20;99.90;;;;;;5075744;28;20417;-80
2022/07/15 00:31:01;;;;;;;;;;;18.10;99.90;;;;;;5057449;28;19995;-82
2022/07/15 00:33:27;;;;;;;;;;;18.00;99.90;;;;;;5075644;28;19962;-80
2022/07/15 00:35:52;;;;;;;;;;;17.90;99.90;;;;;;5075840;28;20333;-80
2022/07/15 00:38:18;;;;;;;;;;;17.70;99.90;;;;;;5075345;28;19970;-80
2022/07/15 00:40:48;;;;;;;;;;;17.60;99.90;;;;;;5057157;28;19919;-80
2022/07/15 00:43:16;;;;;;;;;;;17.50;99.90;;;;;;5075578;28;19961;-81
2022/07/15 00:45:41;;;;;;;;;;;17.60;99.90;;;;;;5075466;28;19908;-81
2022/07/15 00:48:07;;;;;;;;;;;17.90;99.90;;;;;;5075344;28;20007;-81
2022/07/15 00:50:32;;;;;;;;;;;17.70;99.90;;;;;;5074864;28;20427;-81
2022/07/15 00:53:08;;;;;;;;;;;17.60;99.90;;;;;;5075436;28;19908;-81
2022/07/15 00:55:39;;;;;;;;;;;17.70;99.90;;;;;;5075353;28;20266;-80
2022/07/15 00:58:06;;;;;;;;;;;17.60;99.90;;;;;;5057284;28;20289;-80
2022/07/15 01:00:32;;;;;;;;;;;17.60;99.90;;;;;;5074883;28;19912;-81
2022/07/15 01:02:58;;;;;;;;;;;17.50;99.90;;;;;;5074688;28;19909;-81
2022/07/15 01:05:25;;;;;;;;;;;17.60;99.90;;;;;;5075145;28;19916;-80
2022/07/15 01:07:50;;;;;;;;;;;17.50;99.90;;;;;;5074972;28;19913;-81
2022/07/15 01:10:17;;;;;;;;;;;17.40;99.90;;;;;;5074732;28;20424;-80
2022/07/15 01:12:42;;;;;;;;;;;17.30;99.90;;;;;;5074906;28;20368;-80
2022/07/15 01:15:09;;;;;;;;;;;17.40;99.90;;;;;;5074955;28;19909;-80
2022/07/15 01:17:34;;;;;;;;;;;17.40;99.90;;;;;;5074804;28;20418;-81
2022/07/15 01:20:00;;;;;;;;;;;17.30;99.90;;;;;;5074978;28;19908;-81
2022/07/15 01:22:26;;;;;;;;;;;17.40;99.90;;;;;;5074803;28;19958;-80
2022/07/15 01:24:52;;;;;;;;;;;17.50;99.90;;;;;;5074654;28;19908;-80
2022/07/15 01:27:18;;;;;;;;;;;17.40;99.90;;;;;;5074650;28;19916;-81
2022/07/15 01:29:44;;;;;;;;;;;17.40;99.90;;;;;;5074592;28;19909;-81
2022/07/15 01:32:09;;;;;;;;;;;17.40;99.90;;;;;;5074089;28;19916;-82
2022/07/15 01:34:35;;;;;;;;;;;17.40;99.90;;;;;;5074483;28;20379;-80
2022/07/15 01:37:00;;;;;;;;;;;17.40;99.90;;;;;;5074368;28;19954;-80
2022/07/15 01:39:26;;;;;;;;;;;17.30;99.90;;;;;;5074503;28;20003;-80
2022/07/15 01:41:52;;;;;;;;;;;17.30;99.90;;;;;;5061542;28;20369;-81
2022/07/15 01:44:17;;;;;;;;;;;17.20;99.90;;;;;;5054430;28;19908;-79
2022/07/15 01:46:43;;;;;;;;;;;17.00;99.90;;;;;;5036323;28;19916;-80
2022/07/15 01:49:29;;;;;;;;;;;17.10;99.90;;;;;;5054195;28;19963;-80
2022/07/15 01:51:56;;;;;;;;;;;17.00;99.90;;;;;;5053839;28;19919;-80
2022/07/15 01:54:26;;;;;;;;;;;17.00;99.90;;;;;;5054220;28;19913;-80
2022/07/15 01:56:52;;;;;;;;;;;17.00;99.90;;;;;;5054104;28;20381;-80
2022/07/15 01:59:18;;;;;;;;;;;17.00;99.90;;;;;;5054145;28;20434;-80
2022/07/15 02:01:44;;;;;;;;;;;16.90;99.90;;;;;;5053524;28;19959;-81
2022/07/15 02:04:10;;;;;;;;;;;17.00;99.90;;;;;;5054074;28;20261;-80
2022/07/15 02:06:36;;;;;;;;;;;16.90;99.90;;;;;;5053885;28;19908;-81
2022/07/15 02:09:02;;;;;;;;;;;16.80;99.90;;;;;;5053902;28;20229;-81
2022/07/15 02:11:28;;;;;;;;;;;16.90;99.90;;;;;;5034625;28;19917;-80
2022/07/15 02:13:58;;;;;;;;;;;17.00;99.90;;;;;;5053527;28;19947;-80
2022/07/15 02:16:24;;;;;;;;;;;17.20;99.90;;;;;;5053230;28;19958;-81
2022/07/15 02:18:50;;;;;;;;;;;17.20;99.90;;;;;;5053690;28;19916;-80
2022/07/15 02:21:15;;;;;;;;;;;17.10;99.90;;;;;;5053947;28;19913;-80
2022/07/15 02:23:41;;;;;;;;;;;17.10;99.90;;;;;;5053660;28;19916;-81
2022/07/15 02:26:06;;;;;;;;;;;17.10;99.90;;;;;;5053361;28;20088;-80
2022/07/15 02:28:32;;;;;;;;;;;17.10;99.90;;;;;;5053630;28;19935;-80
2022/07/15 02:30:57;;;;;;;;;;;17.00;99.90;;;;;;5053204;28;19908;-80
2022/07/15 02:33:23;;;;;;;;;;;16.90;99.90;;;;;;5053556;28;20404;-81
2022/07/15 02:35:49;;;;;;;;;;;16.80;99.90;;;;;;5053450;28;19908;-81
2022/07/15 02:38:15;;;;;;;;;;;16.80;99.90;;;;;;5053369;28;19908;-79
2022/07/15 02:40:41;;;;;;;;;;;16.90;99.90;;;;;;5053015;28;19916;-81
2022/07/15 02:43:08;;;;;;;;;;;17.00;99.90;;;;;;5053439;28;19909;-81
2022/07/15 02:45:34;;;;;;;;;;;16.90;99.90;;;;;;5053339;28;19909;-82
2022/07/15 02:48:00;;;;;;;;;;;16.90;99.90;;;;;;5053175;28;19921;-80
2022/07/15 02:50:25;;;;;;;;;;;16.80;99.90;;;;;;5053127;28;19919;-80
2022/07/15 02:52:51;;;;;;;;;;;16.80;99.90;;;;;;5053341;28;19916;-80
2022/07/15 02:55:17;;;;;;;;;;;16.70;99.90;;;;;;5053531;28;19944;-81
2022/07/15 02:57:43;;;;;;;;;;;16.70;99.90;;;;;;5053181;28;19952;-80
2022/07/15 03:00:11;;;;;;;;;;;16.60;99.90;;;;;;5053191;28;19971;-81
2022/07/15 03:02:37;;;;;;;;;;;16.70;99.90;;;;;;5052596;28;19970;-80
2022/07/15 03:05:03;;;;;;;;;;;16.50;99.90;;;;;;5053084;28;19916;-80
2022/07/15 03:07:28;;;;;;;;;;;16.20;99.90;;;;;;5053211;28;19917;-80
2022/07/15 03:09:54;;;;;;;;;;;15.80;99.90;;;;;;5053083;28;19944;-79
2022/07/15 03:12:20;;;;;;;;;;;15.90;99.90;;;;;;5034111;28;19916;-80
2022/07/15 03:14:46;;;;;;;;;;;16.00;99.90;;;;;;5053069;28;19952;-80
2022/07/15 03:17:11;;;;;;;;;;;16.30;99.90;;;;;;5053047;28;19909;-80
2022/07/15 03:19:37;;;;;;;;;;;16.40;99.90;;;;;;5053036;28;19909;-80
2022/07/15 03:22:03;;;;;;;;;;;16.60;99.90;;;;;;5053132;28;19995;-80
2022/07/15 03:24:28;;;;;;;;;;;16.70;99.90;;;;;;5053018;28;19909;-81
2022/07/15 03:26:54;;;;;;;;;;;16.70;99.90;;;;;;5055122;28;19917;-80
2022/07/15 03:29:19;;;;;;;;;;;16.70;99.90;;;;;;5057001;28;19952;-80
2022/07/15 03:31:46;;;;;;;;;;;16.80;99.90;;;;;;5056518;28;19912;-81
2022/07/15 03:34:12;;;;;;;;;;;16.80;99.90;;;;;;5038898;28;19909;-80
2022/07/15 03:36:38;;;;;;;;;;;16.70;99.90;;;;;;5056854;28;20379;-80
2022/07/15 03:39:05;;;;;;;;;;;16.60;99.90;;;;;;5056699;28;20284;-80
2022/07/15 03:41:30;;;;;;;;;;;16.60;99.90;;;;;;5063665;28;19999;-80
2022/07/15 03:43:56;;;;;;;;;;;16.50;99.90;;;;;;5058654;28;19948;-80
2022/07/15 03:46:21;;;;;;;;;;;16.50;99.90;;;;;;5076583;28;19909;-80
2022/07/15 03:48:47;;;;;;;;;;;16.50;99.90;;;;;;5076330;28;19948;-81
2022/07/15 03:51:13;;;;;;;;;;;16.50;99.90;;;;;;5076123;28;20376;-81
2022/07/15 03:53:38;;;;;;;;;;;16.20;99.90;;;;;;5076570;28;19909;-80
2022/07/15 03:56:04;;;;;;;;;;;16.10;99.90;;;;;;5076373;28;19916;-81
2022/07/15 03:58:30;;;;;;;;;;;15.90;99.90;;;;;;5076379;28;19909;-80
2022/07/15 04:00:55;;;;;;;;;;;15.90;99.90;;;;;;5075994;28;19965;-81
2022/07/15 04:03:21;;;;;;;;;;;15.90;99.90;;;;;;5076297;28;20369;-81
2022/07/15 04:05:46;;;;;;;;;;;16.10;99.90;;;;;;5076263;28;19908;-79
2022/07/15 04:08:12;;;;;;;;;;;16.20;99.90;;;;;;5076065;28;19912;-80
2022/07/15 04:10:38;;;;;;;;;;;16.20;99.90;;;;;;5076205;28;19934;-80
2022/07/15 04:13:03;;;;;;;;;;;16.00;99.90;;;;;;5056618;28;19971;-79
2022/07/15 04:15:29;;;;;;;;;;;16.00;99.90;;;;;;5076106;28;19912;-79
2022/07/15 04:17:55;;;;;;;;;;;16.10;99.90;;;;;;5075997;28;19934;-81
2022/07/15 04:20:21;;;;;;;;;;;16.20;99.90;;;;;;5075917;28;19909;-80
2022/07/15 04:22:46;;;;;;;;;;;16.30;99.90;;;;;;5076065;28;19909;-80
2022/07/15 04:25:14;;;;;;;;;;;16.30;99.90;;;;;;5075729;28;19908;-80
2022/07/15 04:27:40;;;;;;;;;;;16.60;99.90;;;;;;5076128;28;19966;-81
2022/07/15 04:30:06;;;;;;;;;;;16.50;99.90;;;;;;5057813;28;19908;-80
2022/07/15 04:32:32;;;;;;;;;;;16.60;99.90;;;;;;5075344;28;19909;-81
2022/07/15 04:34:57;;;;;;;;;;;16.50;99.90;;;;;;5075701;28;19915;-79
2022/07/15 04:37:23;;;;;;;;;;;16.30;99.90;;;;;;5074862;28;20007;-80
2022/07/15 04:39:48;;;;;;;;;;;16.30;99.90;;;;;;5075385;28;19908;-81
2022/07/15 04:42:14;;;;;;;;;;;16.20;99.90;;;;;;5090538;28;19916;-79
2022/07/15 04:44:40;;;;;;;;;;;16.30;99.90;;;;;;5095693;28;20054;-81
2022/07/15 04:47:06;;;;;;;;;;;16.40;99.90;;;;;;5095633;28;19990;-79
2022/07/15 04:52:16;;;;;;;;;;;16.60;99.90;;;;;;5095104;28;20007;-80
2022/07/15 04:54:42;;;;;;;;;;;16.70;99.90;;;;;;5095584;28;19947;-80
2022/07/15 04:57:08;;;;;;;;;;;16.80;99.90;;;;;;5095541;28;20429;-81
2022/07/15 04:59:33;;;;;;;;;;;16.90;99.90;;;;;;5060577;28;19961;-80
2022/07/15 05:01:59;;;;;;;;;;;16.90;99.90;;;;;;5095033;28;19908;-80
2022/07/15 05:04:24;;;;;;;;;;;16.90;99.90;;;;;;5095294;28;20430;-80
2022/07/15 05:06:50;;;;;;;;;;;16.90;99.90;;;;;;5095318;28;19915;-80
2022/07/15 05:09:16;;;;;;;;;;;16.40;99.90;;;;;;5095307;28;20001;-80
2022/07/15 05:11:41;;;;;;;;;;;16.00;99.90;;;;;;5075458;28;20019;-81
2022/07/15 05:14:07;;;;;;;;;;;16.00;99.90;;;;;;5094929;28;20376;-80
2022/07/15 05:16:32;;;;;;;;;;;16.30;99.90;;;;;;5076983;28;19912;-81
2022/07/15 05:18:58;;;;;;;;;;;16.60;99.90;;;;;;5095123;28;19908;-81
2022/07/15 05:21:24;;;;;;;;;;;16.80;99.90;;;;;;5095337;28;19908;-83
2022/07/15 05:23:49;;;;;;;;;;;17.10;99.90;;;;;;5095007;28;19912;-82
2022/07/15 05:26:15;;;;;;;;;;;17.30;99.90;;;;;;5094750;28;19934;-80
2022/07/15 05:28:41;;;;;;;;;;;17.30;99.90;;;;;;5094829;28;19912;-81
2022/07/15 05:31:07;;;;;;;;;;;17.40;99.90;;;;;;5094659;28;19912;-81
2022/07/15 05:33:33;;;;;;;;;;;17.20;99.90;;;;;;5094823;28;19931;-81
2022/07/15 05:35:58;;;;;;;;;;;17.30;99.90;;;;;;5094832;28;19950;-79
2022/07/15 05:38:24;;;;;;;;;;;17.60;99.90;;;;;;5094458;28;19915;-81
2022/07/15 05:40:50;;;;;;;;;;;17.80;99.90;;;;;;5094452;28;20365;-80
2022/07/15 05:43:16;;;;;;;;;;;17.90;99.90;;;;;;5057680;28;19913;-80
2022/07/15 05:45:42;;;;;;;;;;;18.10;99.90;;;;;;5056403;28;19930;-80
2022/07/15 05:48:08;;;;;;;;;;;18.00;99.90;;;;;;5074139;28;19920;-80
2022/07/15 05:50:33;;;;;;;;;;;18.20;99.90;;;;;;5072887;28;19940;-82
2022/07/15 05:52:59;;;;;;;;;;;18.30;99.90;;;;;;5089623;28;19954;-80
2022/07/15 05:55:25;;;;;;;;;;;18.40;99.90;;;;;;5094444;28;19912;-80
2022/07/15 05:57:51;;;;;;;;;;;18.50;99.90;;;;;;5094294;28;19908;-80
2022/07/15 06:00:16;;;;;;;;;;;18.50;99.90;;;;;;5094290;28;19908;-81
2022/07/15 06:02:42;;;;;;;;;;;18.70;99.90;;;;;;5093763;28;19908;-81
2022/07/15 06:05:08;;;;;;;;;;;18.70;99.90;;;;;;5094305;28;19915;-80
2022/07/15 06:07:35;;;;;;;;;;;18.90;99.90;;;;;;5094127;28;19912;-80
2022/07/15 06:10:00;;;;;;;;;;;19.00;99.90;;;;;;5094120;28;20335;-82
2022/07/15 06:12:26;;;;;;;;;;;19.30;99.90;;;;;;5074342;28;19916;-81
2022/07/15 06:14:51;;;;;;;;;;;19.40;99.90;;;;;;5093652;28;19908;-81
2022/07/15 06:17:17;;;;;;;;;;;19.70;99.90;;;;;;5094094;28;20394;-81
2022/07/15 06:19:43;;;;;;;;;;;19.70;99.90;;;;;;5093753;28;19916;-81
2022/07/15 06:22:09;;;;;;;;;;;19.80;99.90;;;;;;5094324;28;19908;-82
2022/07/15 06:24:34;;;;;;;;;;;20.00;99.90;;;;;;5093840;28;19915;-81
2022/07/15 06:27:00;;;;;;;;;;;19.90;99.90;;;;;;5075623;28;19912;-81
2022/07/15 06:29:25;;;;;;;;;;;19.90;99.90;;;;;;5093839;28;19912;-82
2022/07/15 06:31:51;;;;;;;;;;;19.90;99.90;;;;;;5093393;28;20276;-80
2022/07/15 06:34:17;;;;;;;;;;;19.80;99.90;;;;;;5093818;28;19994;-80
2022/07/15 06:36:42;;;;;;;;;;;19.90;99.90;;;;;;5093513;28;19962;-80
2022/07/15 06:39:08;;;;;;;;;;;19.90;99.90;;;;;;5093731;28;20027;-80
2022/07/15 06:41:34;;;;;;;;;;;20.10;99.90;;;;;;5093228;28;19916;-81
2022/07/15 06:44:01;;;;;;;;;;;20.30;99.90;;;;;;5093530;28;19915;-80
2022/07/15 06:46:27;;;;;;;;;;;20.50;99.90;;;;;;5093612;28;19916;-82
2022/07/15 06:48:53;;;;;;;;;;;20.60;99.90;;;;;;5075159;28;19920;-81
2022/07/15 06:51:18;;;;;;;;;;;20.50;99.90;;;;;;5093537;28;19908;-82
2022/07/15 06:53:44;;;;;;;;;;;20.80;99.90;;;;;;5093299;28;20002;-83
2022/07/15 06:56:10;;;;;;;;;;;21.10;99.90;;;;;;5093475;28;19979;-82
2022/07/15 06:58:35;;;;;;;;;;;21.20;99.90;;;;;;5093567;28;19912;-81
2022/07/15 07:01:01;;;;;;;;;;;21.30;99.90;;;;;;5074762;28;20002;-80
2022/07/15 07:03:27;;;;;;;;;;;21.50;99.90;;;;;;5093046;28;19953;-83
2022/07/15 07:05:52;;;;;;;;;;;21.70;99.90;;;;;;5093309;28;20381;-82
2022/07/15 07:08:18;;;;;;;;;;;22.00;99.90;;;;;;5075135;28;20380;-82
2022/07/15 07:10:43;;;;;;;;;;;22.10;99.90;;;;;;5093354;28;19943;-83
2022/07/15 07:13:09;;;;;;;;;;;22.20;99.90;;;;;;5072963;28;19916;-81
2022/07/15 07:15:35;;;;;;;;;;;22.30;99.90;;;;;;5093374;28;20277;-81
2022/07/15 07:18:01;;;;;;;;;;;22.30;99.90;;;;;;5093245;28;19912;-82
2022/07/15 07:20:26;;;;;;;;;;;22.20;99.90;;;;;;5093444;28;19986;-81
2022/07/15 07:22:52;;;;;;;;;;;22.30;99.90;;;;;;5093383;28;19915;-83
2022/07/15 07:25:18;;;;;;;;;;;22.70;99.90;;;;;;5093044;28;19973;-81
2022/07/15 07:27:43;;;;;;;;;;;22.80;99.90;;;;;;5093196;28;20417;-83
2022/07/15 07:30:09;;;;;;;;;;;22.90;99.90;;;;;;5093129;28;20433;-80
2022/07/15 07:32:34;;;;;;;;;;;22.90;97.60;;;;;;5092771;28;19908;-83
2022/07/15 07:35:00;;;;;;;;;;;23.10;96.70;;;;;;5093023;28;19908;-81
2022/07/15 07:37:26;;;;;;;;;;;23.20;94.90;;;;;;5092998;28;20396;-82
2022/07/15 07:39:52;;;;;;;;;;;23.30;93.30;;;;;;5093111;28;19999;-83
2022/07/15 07:42:19;;;;;;;;;;;25.30;88.00;;;;;;5092630;28;19916;-83
2022/07/15 07:44:44;;;;;;;;;;;27.00;76.10;;;;;;5093068;28;19950;-83
2022/07/15 07:47:10;;;;;;;;;;;28.70;71.50;;;;;;5092850;28;19955;-81
2022/07/15 07:49:37;;;;;;;;;;;30.10;66.60;;;;;;5092928;28;20299;-81
2022/07/15 07:52:04;;;;;;;;;;;30.80;62.60;;;;;;5092625;28;19915;-80
2022/07/15 07:54:30;;;;;;;;;;;31.30;60.80;;;;;;5092941;28;20386;-80
2022/07/15 07:56:56;;;;;;;;;;;31.10;59.40;;;;;;5092865;28;19912;-80
2022/07/15 07:59:21;;;;;;;;;;;30.90;59.40;;;;;;5092830;28;19908;-80
2022/07/15 08:01:47;;;;;;;;;;;31.30;57.60;;;;;;5092413;28;20376;-81
2022/07/15 08:04:13;;;;;;;;;;;31.30;57.30;;;;;;5092754;28;19908;-80
2022/07/15 08:06:40;;;;;;;;;;;32.00;56.60;;;;;;5092846;28;19909;-80
2022/07/15 08:09:06;;;;;;;;;;;31.50;54.40;;;;;;5092598;28;19916;-82
2022/07/15 08:11:31;;;;;;;;;;;30.70;55.10;;;;;;5092704;28;20322;-80
2022/07/15 08:13:57;;;;;;;;;;;30.70;55.10;;;;;;5074786;28;19916;-82
2022/07/15 08:16:22;;;;;;;;;;;30.40;55.30;;;;;;5096312;28;19915;-81
2022/07/15 08:18:48;;;;;;;;;;;30.00;55.80;;;;;;5099722;28;19908;-83
2022/07/15 08:21:14;;;;;;;;;;;29.60;57.20;;;;;;5096181;28;19912;-85
2022/07/15 08:23:40;;;;;;;;;;;29.60;57.50;;;;;;5096253;28;19908;-81
2022/07/15 08:26:07;;;;;;;;;;;29.60;56.70;;;;;;5096092;28;20428;-81
2022/07/15 08:28:33;;;;;;;;;;;29.30;57.30;;;;;;5096066;28;19919;-80
2022/07/15 08:30:59;;;;;;;;;;;28.80;57.40;;;;;;5096043;28;19908;-81
2022/07/15 08:33:24;;;;;;;;;;;29.10;56.50;;;;;;5095499;28;19912;-81
2022/07/15 08:35:50;;;;;;;;;;;29.50;57.00;;;;;;5095935;28;19991;-80
2022/07/15 08:38:15;;;;;;;;;;;29.60;57.20;;;;;;5095552;28;19912;-81
2022/07/15 08:40:42;;;;;;;;;;;30.00;55.80;;;;;;5095783;28;20322;-81
2022/07/15 08:43:09;;;;;;;;;;;30.20;54.30;;;;;;5095331;28;19963;-80
2022/07/15 08:45:38;;;;;;;;;;;29.60;54.70;;;;;;5095780;28;19909;-80
2022/07/15 08:48:07;;;;;;;;;;;30.10;54.10;;;;;;5095516;28;20015;-80
2022/07/15 08:50:33;;;;;;;;;;;31.00;54.50;;;;;;5095315;28;19908;-80
2022/07/15 08:52:59;;;;;;;;;;;30.70;51.70;;;;;;5095180;28;20007;-80
2022/07/15 08:55:25;;;;;;;;;;;30.10;52.20;;;;;;5095396;28;19943;-82
2022/07/15 08:57:52;;;;;;;;;;;30.10;51.00;;;;;;5095501;28;19908;-81
2022/07/15 09:00:18;;;;;;;;;;;30.40;51.40;;;;;;5077266;28;20257;-81
2022/07/15 09:02:44;;;;;;;;;;;30.50;52.10;;;;;;5095059;28;19908;-81
2022/07/15 09:05:36;;;;;;;;;;;31.00;51.60;;;;;;5095426;28;19933;-80
2022/07/15 09:08:01;;;;;;;;;;;31.20;49.90;;;;;;5092193;28;19912;-80
2022/07/15 09:10:46;;;;;;;;;;;31.20;50.70;;;;;;5095142;28;20046;-81
2022/07/15 09:13:22;;;;;;;;;;;31.40;49.20;;;;;;5075287;28;19923;-82
2022/07/15 09:15:49;;;;;;;;;;;32.20;49.70;;;;;;5095199;28;19915;-81
2022/07/15 09:18:22;;;;;;;;;;;31.90;47.00;;;;;;5094999;28;19908;-80
2022/07/15 09:20:49;;;;;;;;;;;31.30;48.70;;;;;;5095036;28;19916;-80
2022/07/15 09:23:20;;;;;;;;;;;31.70;48.30;;;;;;5095057;28;19908;-80
2022/07/15 09:25:50;;;;;;;;;;;32.30;47.70;;;;;;5094516;28;20285;-80
2022/07/15 09:28:16;;;;;;;;;;;32.90;46.60;;;;;;5094868;28;20099;-81
2022/07/15 09:33:40;;;;;;;;;;;32.90;46.70;;;;;;5094275;28;20441;-81
2022/07/15 09:36:09;;;;;;;;;;;33.20;45.80;;;;;;5094532;28;19912;-83
2022/07/15 09:38:43;;;;;;;;;;;33.00;45.70;;;;;;5094399;28;19908;-81
2022/07/15 09:41:13;;;;;;;;;;;33.20;45.30;;;;;;5094498;28;19916;-80
2022/07/15 09:43:45;;;;;;;;;;;33.20;45.30;;;;;;5094161;28;19908;-81
2022/07/15 09:46:11;;;;;;;;;;;32.90;45.60;;;;;;5094690;28;19912;-82
2022/07/15 09:48:44;;;;;;;;;;;33.20;45.50;;;;;;5094292;28;20300;-80
2022/07/15 09:51:10;;;;;;;;;;;33.40;45.30;;;;;;5094496;28;19912;-81
2022/07/15 09:53:35;;;;;;;;;;;33.50;45.10;;;;;;5093870;28;20372;-81
2022/07/15 09:56:02;;;;;;;;;;;34.00;44.80;;;;;;5094467;28;19915;-81
2022/07/15 09:58:28;;;;;;;;;;;34.20;44.90;;;;;;5094351;28;19912;-81
2022/07/15 10:00:54;;;;;;;;;;;34.30;44.40;;;;;;5094288;28;20296;-82
2022/07/15 10:03:23;;;;;;;;;;;35.00;43.50;;;;;;5093879;28;19914;-81
2022/07/15 10:05:50;;;;;;;;;;;35.10;43.30;;;;;;5094207;28;19962;-81
2022/07/15 10:08:16;;;;;;;;;;;35.10;42.50;;;;;;5094097;28;19920;-81
2022/07/15 10:10:42;;;;;;;;;;;34.70;43.00;;;;;;5082292;28;19908;-81
2022/07/15 10:13:35;;;;;;;;;;;34.90;43.30;;;;;;5054457;28;19924;-82
2022/07/15 10:16:03;;;;;;;;;;;35.60;42.90;;;;;;5057826;28;20011;-81
2022/07/15 10:18:29;;;;;;;;;;;36.20;43.10;;;;;;5073728;28;20451;-81
2022/07/15 10:21:04;;;;;;;;;;;36.10;41.90;;;;;;5073712;28;19919;-81
2022/07/15 10:23:57;;;;;;;;;;;36.10;41.60;;;;;;5073706;28;19908;-81
2022/07/15 10:26:30;;;;;;;;;;;36.30;41.50;;;;;;5073639;28;19909;-81
2022/07/15 10:28:58;;;;;;;;;;;35.60;41.50;;;;;;5073503;28;19916;-81
2022/07/15 10:31:26;;;;;;;;;;;36.20;41.80;;;;;;5073557;28;20431;-81
2022/07/15 10:34:06;;;;;;;;;;;37.00;41.50;;;;;;5073089;28;19916;-82
2022/07/15 10:36:38;;;;;;;;;;;37.90;40.80;;;;;;5072827;28;19917;-82
2022/07/15 10:39:04;;;;;;;;;;;37.30;39.70;;;;;;5073429;28;19908;-81
2022/07/15 10:41:48;;;;;;;;;;;36.60;40.40;;;;;;5073383;28;19923;-81
2022/07/15 10:44:13;;;;;;;;;;;36.70;40.60;;;;;;5072923;28;19991;-81
2022/07/15 10:46:39;;;;;;;;;;;38.00;39.60;;;;;;5073327;28;19981;-81
2022/07/15 10:49:04;;;;;;;;;;;38.90;39.00;;;;;;5073145;28;19916;-81
2022/07/15 10:51:36;;;;;;;;;;;38.80;38.40;;;;;;5073322;28;19908;-82
2022/07/15 10:54:02;;;;;;;;;;;39.20;38.30;;;;;;5072768;28;19915;-82
2022/07/15 10:56:34;;;;;;;;;;;39.30;38.20;;;;;;5073303;28;19908;-82
2022/07/15 10:59:20;;;;;;;;;;;39.90;37.70;;;;;;5073237;28;19912;-82
2022/07/15 11:01:50;;;;;;;;;;;40.00;37.30;;;;;;5072578;28;19999;-81
2022/07/15 11:04:19;;;;;;;;;;;40.50;37.00;;;;;;5072761;28;19955;-82
2022/07/15 11:07:07;;;;;;;;;;;40.40;37.00;;;;;;5073177;28;19915;-82
2022/07/15 11:09:52;;;;;;;;;;;39.10;37.50;;;;;;5073279;28;19913;-82
2022/07/15 11:12:19;;;;;;;;;;;38.90;37.70;;;;;;5073036;28;19908;-81
2022/07/15 11:14:46;;;;;;;;;;;39.00;37.10;;;;;;5054047;28;20381;-81
2022/07/15 11:17:13;;;;;;;;;;;38.90;37.40;;;;;;5073032;28;19909;-82
2022/07/15 11:19:39;;;;;;;;;;;38.60;37.10;;;;;;5073109;28;19909;-84
2022/07/15 11:22:10;;;;;;;;;;;39.80;37.50;;;;;;5073262;28;19954;-81
2022/07/15 11:24:36;;;;;;;;;;;40.40;37.00;;;;;;5072467;28;19912;-82
2022/07/15 11:27:01;;;;;;;;;;;41.00;36.20;;;;;;5072867;28;20315;-82
2022/07/15 11:29:40;;;;;;;;;;;41.10;35.90;;;;;;5073052;28;19955;-81
2022/07/15 11:32:07;;;;;;;;;;;40.60;36.20;;;;;;5072903;28;19915;-81
2022/07/15 11:34:38;;;;;;;;;;;40.80;36.50;;;;;;5072492;28;19931;-81
2022/07/15 11:37:04;;;;;;;;;;;40.60;35.90;;;;;;5073271;28;19940;-81
2022/07/15 11:39:30;;;;;;;;;;;41.00;36.00;;;;;;5072748;28;19908;-82
2022/07/15 11:44:50;;;;;;;;;;;40.70;35.70;;;;;;4998381;28;20398;-82
2022/07/15 11:47:16;;;;;;;;;;;41.10;35.40;;;;;;5053745;28;19979;-81
2022/07/15 11:49:43;;;;;;;;;;;40.70;35.30;;;;;;5056280;28;19950;-81
2022/07/15 11:52:10;;;;;;;;;;;41.10;35.40;;;;;;5056654;28;19916;-81
2022/07/15 11:54:36;;;;;;;;;;;41.40;35.30;;;;;;5073816;28;19955;-81
2022/07/15 11:57:03;;;;;;;;;;;41.10;35.00;;;;;;5076375;28;20357;-81
2022/07/15 11:59:29;;;;;;;;;;;40.80;35.40;;;;;;5076402;28;19912;-81
2022/07/15 12:02:02;;;;;;;;;;;40.60;35.40;;;;;;5076105;28;19973;-81
2022/07/15 12:04:28;;;;;;;;;;;41.40;35.60;;;;;;5075789;28;19970;-82
2022/07/15 12:06:53;;;;;;;;;;;41.40;34.60;;;;;;5076233;28;19909;-81
2022/07/15 12:09:19;;;;;;;;;;;41.70;34.60;;;;;;5076169;28;19916;-82
2022/07/15 12:11:45;;;;;;;;;;;41.10;34.90;;;;;;5076285;28;20010;-82
2022/07/15 12:14:18;;;;;;;;;;;41.80;34.40;;;;;;5056570;28;19990;-82
2022/07/15 12:16:44;;;;;;;;;;;42.10;34.60;;;;;;5076307;28;20272;-82
2022/07/15 12:19:13;;;;;;;;;;;42.40;34.50;;;;;;5076013;28;19923;-81
2022/07/15 12:21:40;;;;;;;;;;;42.30;33.40;;;;;;5076075;28;19939;-82
2022/07/15 12:24:14;;;;;;;;;;;42.00;34.60;;;;;;5076063;28;19920;-82
2022/07/15 12:26:41;;;;;;;;;;;42.20;35.00;;;;;;5076003;28;19909;-82
2022/07/15 12:29:08;;;;;;;;;;;42.30;34.00;;;;;;5075799;28;19923;-81
2022/07/15 12:31:34;;;;;;;;;;;41.20;34.90;;;;;;5075836;28;19915;-82
2022/07/15 12:34:00;;;;;;;;;;;40.50;35.10;;;;;;5075296;28;19913;-81
2022/07/15 12:36:27;;;;;;;;;;;41.50;34.90;;;;;;5075612;28;19958;-82
2022/07/15 12:39:04;;;;;;;;;;;41.40;34.80;;;;;;5075814;28;20007;-82
2022/07/15 12:41:30;;;;;;;;;;;42.10;34.80;;;;;;5084789;28;19990;-82
2022/07/15 12:43:57;;;;;;;;;;;42.00;34.30;;;;;;5095497;28;19912;-82
2022/07/15 12:46:41;;;;;;;;;;;41.90;34.50;;;;;;5095783;28;20387;-82
2022/07/15 12:49:07;;;;;;;;;;;41.40;34.50;;;;;;5095434;28;19920;-82
2022/07/15 12:51:33;;;;;;;;;;;41.30;34.50;;;;;;5095692;28;19995;-82
2022/07/15 12:54:08;;;;;;;;;;;41.80;35.10;;;;;;5095268;28;19908;-81
2022/07/15 12:56:52;;;;;;;;;;;42.20;34.30;;;;;;5095580;28;20403;-82
2022/07/15 12:59:17;;;;;;;;;;;41.60;34.40;;;;;;5094865;28;19914;-81
2022/07/15 13:01:44;;;;;;;;;;;41.70;35.10;;;;;;5095349;28;19908;-82
2022/07/15 13:04:10;;;;;;;;;;;41.40;35.20;;;;;;5095015;28;19992;-82
2022/07/15 13:06:35;;;;;;;;;;;41.10;34.90;;;;;;5095115;28;19966;-82
2022/07/15 13:09:01;;;;;;;;;;;41.10;34.70;;;;;;5095153;28;19915;-81
2022/07/15 13:11:26;;;;;;;;;;;40.80;34.90;;;;;;5095242;28;19916;-81
2022/07/15 13:13:52;;;;;;;;;;;41.50;35.20;;;;;;5075446;28;20041;-81
2022/07/15 13:16:18;;;;;;;;;;;40.80;34.60;;;;;;5095146;28;19908;-82
2022/07/15 13:18:44;;;;;;;;;;;40.70;35.50;;;;;;5095157;28;19908;-82
2022/07/15 13:21:09;;;;;;;;;;;41.80;34.70;;;;;;5095054;28;19915;-81
2022/07/15 13:23:35;;;;;;;;;;;42.10;34.60;;;;;;5095224;28;19908;-82
2022/07/15 13:26:00;;;;;;;;;;;42.60;34.30;;;;;;5095076;28;19908;-82
2022/07/15 13:28:26;;;;;;;;;;;42.60;34.30;;;;;;5094838;28;20322;-82
2022/07/15 13:30:52;;;;;;;;;;;42.10;34.10;;;;;;5094945;28;19908;-82
2022/07/15 13:33:18;;;;;;;;;;;41.30;34.20;;;;;;5076406;28;19962;-82
2022/07/15 13:35:43;;;;;;;;;;;40.80;34.50;;;;;;5094799;28;19934;-81
2022/07/15 13:38:09;;;;;;;;;;;41.50;34.60;;;;;;5094653;28;19915;-81
2022/07/15 13:40:35;;;;;;;;;;;42.00;34.30;;;;;;5094495;28;19908;-81
2022/07/15 13:43:01;;;;;;;;;;;41.70;33.80;;;;;;5094663;28;19912;-82
2022/07/15 13:45:26;;;;;;;;;;;41.50;34.30;;;;;;5094659;28;19956;-81
2022/07/15 13:47:52;;;;;;;;;;;41.80;34.10;;;;;;5094459;28;19923;-82
2022/07/15 13:53:02;;;;;;;;;;;42.30;33.70;;;;;;5094430;28;19931;-81
2022/07/15 13:55:28;;;;;;;;;;;41.80;33.50;;;;;;5094415;28;20360;-82
2022/07/15 13:57:53;;;;;;;;;;;41.80;34.20;;;;;;5094467;28;19908;-81
2022/07/15 14:00:21;;;;;;;;;;;41.90;34.10;;;;;;5094299;28;19934;-82
2022/07/15 14:02:47;;;;;;;;;;;42.10;34.10;;;;;;5094262;28;19912;-82
2022/07/15 14:05:13;;;;;;;;;;;42.20;34.20;;;;;;5093770;28;19975;-82
2022/07/15 14:07:39;;;;;;;;;;;42.30;34.90;;;;;;5094056;28;20379;-82
2022/07/15 14:10:05;;;;;;;;;;;42.40;34.50;;;;;;5093782;28;19909;-81
2022/07/15 14:12:31;;;;;;;;;;;42.20;34.90;;;;;;5093663;28;19955;-82
2022/07/15 14:14:57;;;;;;;;;;;42.30;35.00;;;;;;5056595;28;19951;-82
2022/07/15 14:17:22;;;;;;;;;;;41.90;35.40;;;;;;5094053;28;19916;-82
2022/07/15 14:19:48;;;;;;;;;;;41.50;35.50;;;;;;5094034;28;19950;-82
2022/07/15 14:22:13;;;;;;;;;;;41.50;35.40;;;;;;5094124;28;20447;-81
2022/07/15 14:24:39;;;;;;;;;;;41.50;34.80;;;;;;5094085;28;20395;-82
2022/07/15 14:27:05;;;;;;;;;;;42.20;36.10;;;;;;5094178;28;19916;-82